createdAt,value
2019-05-20T00:00:02.943Z,184.33
2019-05-20T00:02:33.385Z,199.53
2019-05-20T00:05:03.620Z,200.30
2019-05-20T00:07:33.856Z,175.37
2019-05-20T00:10:05.240Z,203.17
2019-05-20T00:12:35.528Z,188.27
2019-05-20T00:15:06.076Z,188.17
2019-05-20T00:17:36.448Z,195.13
2019-05-20T00:20:08.667Z,191.50
2019-05-20T00:22:38.958Z,196.87
2019-05-20T00:25:09.793Z,184.40
2019-05-20T00:27:40.115Z,190.93
2019-05-20T00:30:11.958Z,183.47
2019-05-20T00:32:51.086Z,191.40
2019-05-20T00:35:21.334Z,175.30
2019-05-20T00:37:51.516Z,189.80
2019-05-20T00:40:21.758Z,170.33
2019-05-20T00:42:52.397Z,169.47
2019-05-20T00:45:22.719Z,169.63
2019-05-20T00:47:53.989Z,175.30
2019-05-20T00:50:24.244Z,166.47
2019-05-20T00:52:54.703Z,170.27
2019-05-20T00:55:27.012Z,155.37
2019-05-20T00:57:58.365Z,162.17
2019-05-20T01:00:29.505Z,148.90
2019-05-20T01:02:59.685Z,155.23
2019-05-20T01:05:30.554Z,159.40
2019-05-20T01:08:00.706Z,143.70
2019-05-20T01:10:30.819Z,138.00
2019-05-20T01:13:02.300Z,143.77
2019-05-20T01:15:32.446Z,133.17
2019-05-20T01:18:02.899Z,121.47
2019-05-20T01:20:33.497Z,126.23
2019-05-20T01:23:03.637Z,127.10
2019-05-20T01:25:34.163Z,122.30
2019-05-20T01:28:04.317Z,118.63
2019-05-20T01:30:34.880Z,118.33
2019-05-20T01:33:13.605Z,120.47
2019-05-20T01:35:37.243Z,122.53
2019-05-20T01:38:07.741Z,117.83
2019-05-20T01:40:37.956Z,128.87
2019-05-20T01:43:08.560Z,111.73
2019-05-20T01:45:38.830Z,124.23
2019-05-20T01:48:09.095Z,123.97
2019-05-20T01:50:39.334Z,132.87
2019-05-20T01:53:09.414Z,132.10
2019-05-20T01:55:39.937Z,124.37
2019-05-20T01:58:10.661Z,123.43
2019-05-20T02:00:40.914Z,115.20
2019-05-20T02:03:11.629Z,135.13
2019-05-20T02:05:42.539Z,121.03
2019-05-20T02:08:13.341Z,125.80
2019-05-20T02:10:43.538Z,137.23
2019-05-20T02:13:13.691Z,136.07
2019-05-20T02:15:50.356Z,128.00
2019-05-20T02:18:20.549Z,127.33
2019-05-20T02:20:50.841Z,120.53
2019-05-20T02:23:21.116Z,119.43
2019-05-20T02:25:51.270Z,115.37
2019-05-20T02:28:21.489Z,113.53
2019-05-20T02:30:56.496Z,107.50
2019-05-20T02:33:24.187Z,101.27
2019-05-20T02:35:54.379Z,102.20
2019-05-20T02:38:24.460Z,100.57
2019-05-20T02:40:54.585Z,97.97
2019-05-20T02:43:25.100Z,119.77
2019-05-20T02:45:55.694Z,101.37
2019-05-20T02:48:26.230Z,108.20
2019-05-20T02:50:56.797Z,99.30
2019-05-20T02:53:28.294Z,109.80
2019-05-20T02:55:58.803Z,102.80
2019-05-20T02:58:29.632Z,108.67
2019-05-20T03:01:00.650Z,112.97
2019-05-20T03:03:31.137Z,110.07
2019-05-20T03:06:01.339Z,105.27
2019-05-20T03:08:31.513Z,102.20
2019-05-20T03:11:02.232Z,104.33
2019-05-20T03:13:32.696Z,96.50
2019-05-20T03:16:02.965Z,98.33
2019-05-20T03:18:33.244Z,101.83
2019-05-20T03:21:03.910Z,92.13
2019-05-20T03:23:34.426Z,93.40
2019-05-20T03:26:04.899Z,90.67
2019-05-20T03:28:35.161Z,102.23
2019-05-20T03:31:05.716Z,100.47
2019-05-20T03:33:35.806Z,103.90
2019-05-20T03:36:07.323Z,101.27
2019-05-20T03:38:37.837Z,106.10
2019-05-20T03:41:08.041Z,94.13
2019-05-20T03:43:38.479Z,96.00
2019-05-20T03:46:09.036Z,87.43
2019-05-20T03:48:39.208Z,93.17
2019-05-20T03:51:09.405Z,95.37
2019-05-20T03:53:39.559Z,100.27
2019-05-20T03:56:09.787Z,103.93
2019-05-20T03:58:39.956Z,96.20
2019-05-20T04:01:10.155Z,92.13
2019-05-20T04:03:40.305Z,94.93
2019-05-20T04:06:10.672Z,96.97
2019-05-20T04:08:41.564Z,84.43
2019-05-20T04:11:11.722Z,99.43
2019-05-20T04:13:42.169Z,116.03
2019-05-20T04:16:12.456Z,100.10
2019-05-20T04:18:42.883Z,112.20
2019-05-20T04:21:13.332Z,120.53
2019-05-20T04:23:43.791Z,108.13
2019-05-20T04:26:13.985Z,122.37
2019-05-20T04:28:44.699Z,109.70
2019-05-20T04:31:14.916Z,117.47
2019-05-20T04:33:45.304Z,106.17
2019-05-20T04:36:15.518Z,106.63
2019-05-20T04:38:46.147Z,102.30
2019-05-20T04:41:16.629Z,98.10
2019-05-20T04:43:46.755Z,97.93
2019-05-20T04:46:17.038Z,103.00
2019-05-20T04:48:47.256Z,94.07
2019-05-20T04:51:17.726Z,92.37
2019-05-20T04:53:47.890Z,97.50
2019-05-20T04:56:18.024Z,92.00
2019-05-20T04:58:48.145Z,90.13
2019-05-20T05:01:19.661Z,86.03
2019-05-20T05:03:50.260Z,79.50
2019-05-20T05:06:20.541Z,87.60
2019-05-20T05:08:51.073Z,84.63
2019-05-20T05:11:21.389Z,86.33
2019-05-20T05:13:52.771Z,76.13
2019-05-20T05:16:23.331Z,73.60
2019-05-20T05:18:53.556Z,72.63
2019-05-20T05:21:24.291Z,81.33
2019-05-20T05:23:59.276Z,77.37
2019-05-20T05:26:26.437Z,76.03
2019-05-20T05:28:57.135Z,67.23
2019-05-20T05:31:27.436Z,72.00
2019-05-20T05:33:57.913Z,64.60
2019-05-20T05:36:28.208Z,64.10
2019-05-20T05:38:58.584Z,68.07
2019-05-20T05:41:28.798Z,68.77
2019-05-20T05:43:58.985Z,70.67
2019-05-20T05:46:29.638Z,65.90
2019-05-20T05:48:59.906Z,59.50
2019-05-20T05:51:30.560Z,59.40
2019-05-20T05:54:00.964Z,57.97
2019-05-20T05:56:31.155Z,70.03
2019-05-20T05:59:02.929Z,64.53
2019-05-20T06:01:33.328Z,66.10
2019-05-20T06:04:03.503Z,65.13
2019-05-20T06:06:33.702Z,63.07
2019-05-20T06:09:05.039Z,60.87
2019-05-20T06:11:35.928Z,59.43
2019-05-20T06:14:06.488Z,68.13
2019-05-20T06:16:37.222Z,62.40
2019-05-20T06:19:07.829Z,63.53
2019-05-20T06:21:37.930Z,55.53
2019-05-20T06:24:08.477Z,57.57
2019-05-20T06:26:39.145Z,61.00
2019-05-20T06:29:09.529Z,57.27
2019-05-20T06:31:39.987Z,62.87
2019-05-20T06:34:10.394Z,61.83
2019-05-20T06:36:44.610Z,52.03
2019-05-20T06:39:15.263Z,66.13
2019-05-20T06:41:45.479Z,58.53
2019-05-20T06:44:15.641Z,58.90
2019-05-20T06:46:46.043Z,58.60
2019-05-20T06:49:16.207Z,59.00
2019-05-20T06:51:46.760Z,65.10
2019-05-20T06:54:18.445Z,63.27
2019-05-20T06:56:48.994Z,63.43
2019-05-20T06:59:19.258Z,59.80
2019-05-20T07:01:50.166Z,63.60
2019-05-20T07:04:20.258Z,63.53
2019-05-20T07:06:50.472Z,56.57
2019-05-20T07:09:20.789Z,67.03
2019-05-20T07:11:53.046Z,66.23
2019-05-20T07:14:23.406Z,72.87
2019-05-20T07:16:53.680Z,59.33
2019-05-20T07:19:25.141Z,60.60
2019-05-20T07:21:55.706Z,63.30
2019-05-20T07:24:26.102Z,66.23
2019-05-20T07:26:57.348Z,59.30
2019-05-20T07:29:27.946Z,58.67
2019-05-20T07:31:58.136Z,64.87
2019-05-20T07:34:28.322Z,58.93
2019-05-20T07:37:03.062Z,59.07
2019-05-20T07:39:30.793Z,59.07
2019-05-20T07:42:01.149Z,56.07
2019-05-20T07:44:31.726Z,48.47
2019-05-20T07:47:02.215Z,48.90
2019-05-20T07:49:32.901Z,47.97
2019-05-20T07:52:04.304Z,44.13
2019-05-20T07:54:34.936Z,52.27
2019-05-20T07:57:09.065Z,52.13
2019-05-20T07:59:41.737Z,50.73
2019-05-20T08:02:12.558Z,62.07
2019-05-20T08:04:42.697Z,61.40
2019-05-20T08:07:27.632Z,56.73
2019-05-20T08:09:46.445Z,61.43
2019-05-20T08:12:16.979Z,55.73
2019-05-20T08:14:47.990Z,65.97
2019-05-20T08:17:18.203Z,62.27
2019-05-20T08:19:48.397Z,57.90
2019-05-20T08:22:18.648Z,52.10
2019-05-20T08:24:48.826Z,57.27
2019-05-20T08:27:19.025Z,60.73
2019-05-20T08:29:49.110Z,54.47
2019-05-20T08:32:19.620Z,69.33
2019-05-20T08:34:50.173Z,59.17
2019-05-20T08:37:20.465Z,59.13
2019-05-20T08:39:50.994Z,59.07
2019-05-20T08:42:21.543Z,60.13
2019-05-20T08:44:51.713Z,57.40
2019-05-20T08:47:22.191Z,60.97
2019-05-20T08:49:53.680Z,54.27
2019-05-20T08:52:24.223Z,58.27
2019-05-20T08:54:54.813Z,56.60
2019-05-20T08:57:25.111Z,54.30
2019-05-20T08:59:55.593Z,69.03
2019-05-20T09:02:25.817Z,67.33
2019-05-20T09:04:56.392Z,60.30
2019-05-20T09:07:26.616Z,69.17
2019-05-20T09:09:56.970Z,74.17
2019-05-20T09:12:27.153Z,74.50
2019-05-20T09:14:57.309Z,76.23
2019-05-20T09:17:27.663Z,75.83
2019-05-20T09:19:58.557Z,79.53
2019-05-20T09:22:28.986Z,76.87
2019-05-20T09:24:59.268Z,71.73
2019-05-20T09:27:29.774Z,76.10
2019-05-20T09:30:00.047Z,69.77
2019-05-20T09:32:30.643Z,77.07
2019-05-20T09:35:01.561Z,75.47
2019-05-20T09:37:31.899Z,73.07
2019-05-20T09:40:02.115Z,77.40
2019-05-20T09:42:34.066Z,74.30
2019-05-20T09:45:04.902Z,67.07
2019-05-20T09:47:35.292Z,65.87
2019-05-20T09:50:05.918Z,61.20
2019-05-20T09:52:36.127Z,64.90
2019-05-20T09:55:07.592Z,63.83
2019-05-20T09:57:37.858Z,66.53
2019-05-20T10:00:08.819Z,56.33
2019-05-20T10:02:40.754Z,55.63
2019-05-20T10:05:11.315Z,59.07
2019-05-20T10:07:41.515Z,53.83
2019-05-20T10:10:11.989Z,57.93
2019-05-20T10:12:46.576Z,50.73
2019-05-20T10:15:15.149Z,49.50
2019-05-20T10:17:46.123Z,49.40
2019-05-20T10:20:17.225Z,45.47
2019-05-20T10:22:50.273Z,49.93
2019-05-20T10:25:20.940Z,50.53
2019-05-20T10:27:51.700Z,50.13
2019-05-20T10:30:23.412Z,48.13
2019-05-20T10:32:53.981Z,43.70
2019-05-20T10:35:24.502Z,51.03
2019-05-20T10:37:55.848Z,47.97
2019-05-20T10:40:26.110Z,50.17
2019-05-20T10:42:56.732Z,55.67
2019-05-20T10:45:27.944Z,48.53
2019-05-20T10:47:58.677Z,43.00
2019-05-20T10:50:29.950Z,46.67
2019-05-20T10:53:00.493Z,49.23
2019-05-20T10:55:31.558Z,55.63
2019-05-20T10:58:02.218Z,54.93
2019-05-20T11:00:32.779Z,51.00
2019-05-20T11:03:03.130Z,47.80
2019-05-20T11:05:33.411Z,50.67
2019-05-20T11:08:05.116Z,53.10
2019-05-20T11:10:35.287Z,49.17
2019-05-20T11:13:05.579Z,46.17
2019-05-20T11:15:36.228Z,50.03
2019-05-20T11:18:11.950Z,46.50
2019-05-20T11:20:42.124Z,52.07
2019-05-20T11:23:12.550Z,50.17
2019-05-20T11:25:42.678Z,57.73
2019-05-20T11:28:12.863Z,55.70
2019-05-20T11:30:43.454Z,51.90
2019-05-20T11:33:13.802Z,46.73
2019-05-20T11:35:44.622Z,49.23
2019-05-20T11:38:14.842Z,47.07
2019-05-20T11:40:45.198Z,44.40
2019-05-20T11:43:15.514Z,46.60
2019-05-20T11:45:45.724Z,47.40
2019-05-20T11:48:16.025Z,51.43
2019-05-20T11:50:46.593Z,43.67
2019-05-20T11:53:16.859Z,45.90
2019-05-20T11:55:47.743Z,40.20
2019-05-20T11:58:20.253Z,44.87
2019-05-20T12:00:50.336Z,44.37
2019-05-20T12:03:20.553Z,42.17
2019-05-20T12:05:51.104Z,43.07
2019-05-20T12:08:21.989Z,49.73
2019-05-20T12:10:52.319Z,44.90
2019-05-20T12:13:22.963Z,45.87
2019-05-20T12:15:53.298Z,44.67
2019-05-20T12:18:23.970Z,42.77
2019-05-20T12:20:54.286Z,47.07
2019-05-20T12:23:25.932Z,47.63
2019-05-20T12:25:56.295Z,52.73
2019-05-20T12:28:27.309Z,46.60
2019-05-20T12:30:58.594Z,45.30
2019-05-20T12:33:29.004Z,45.90
2019-05-20T12:35:59.730Z,41.93
2019-05-20T12:38:30.134Z,41.00
2019-05-20T12:41:00.482Z,46.13
2019-05-20T12:43:30.873Z,43.63
2019-05-20T12:46:01.732Z,43.10
2019-05-20T12:48:32.190Z,45.13
2019-05-20T12:51:02.550Z,40.97
2019-05-20T12:53:32.924Z,40.40
2019-05-20T12:56:03.261Z,42.80
2019-05-20T12:58:35.279Z,44.43
2019-05-20T13:04:10.496Z,44.37
2019-05-20T13:06:42.216Z,38.73
2019-05-20T13:09:12.596Z,38.17
2019-05-20T13:11:42.836Z,44.57
2019-05-20T13:14:13.389Z,46.17
2019-05-20T13:16:43.682Z,43.20
2019-05-20T13:19:14.417Z,43.93
2019-05-20T13:21:45.504Z,45.30
2019-05-20T13:24:15.942Z,46.00
2019-05-20T13:26:46.699Z,53.03
2019-05-20T13:29:17.233Z,52.23
2019-05-20T13:31:47.657Z,50.97
2019-05-20T13:34:18.781Z,54.27
2019-05-20T13:36:50.405Z,53.83
2019-05-20T13:39:21.586Z,45.43
2019-05-20T13:41:52.096Z,44.87
2019-05-20T13:44:24.112Z,48.73
2019-05-20T13:46:56.226Z,46.30
2019-05-20T13:49:27.112Z,48.40
2019-05-20T13:51:57.541Z,46.73
2019-05-20T13:54:27.967Z,52.13
2019-05-20T13:56:58.575Z,51.07
2019-05-20T13:59:30.365Z,49.17
2019-05-20T14:02:01.029Z,45.73
2019-05-20T14:04:32.569Z,50.43
2019-05-20T14:07:02.947Z,44.40
2019-05-20T14:09:33.711Z,43.37
2019-05-20T14:12:04.238Z,43.40
2019-05-20T14:14:34.738Z,41.03
2019-05-20T14:17:05.123Z,43.10
2019-05-20T14:19:36.024Z,43.03
2019-05-20T14:22:07.287Z,36.77
2019-05-20T14:24:37.908Z,38.73
2019-05-20T14:27:11.514Z,41.27
2019-05-20T14:29:42.942Z,44.17
2019-05-20T14:32:13.639Z,37.83
2019-05-20T14:34:44.657Z,40.40
2019-05-20T14:37:15.040Z,41.23
2019-05-20T14:39:45.872Z,34.33
2019-05-20T14:42:16.389Z,44.57
2019-05-20T14:44:47.323Z,38.20
2019-05-20T14:47:17.632Z,39.20
2019-05-20T14:49:48.257Z,34.40
2019-05-20T14:52:18.748Z,40.27
2019-05-20T14:54:49.184Z,40.67
2019-05-20T14:57:19.854Z,39.63
2019-05-20T14:59:50.805Z,36.13
2019-05-20T15:02:21.465Z,36.80
2019-05-20T15:04:52.366Z,39.03
2019-05-20T15:07:29.844Z,35.00
2019-05-20T15:09:57.871Z,38.73
2019-05-20T15:12:28.618Z,34.47
2019-05-20T15:14:59.074Z,36.67
2019-05-20T15:17:29.507Z,36.17
2019-05-20T15:20:00.362Z,40.63
2019-05-20T15:22:31.197Z,38.20
2019-05-20T15:25:01.579Z,34.47
2019-05-20T15:27:32.014Z,33.47
2019-05-20T15:30:02.436Z,44.13
2019-05-20T15:32:32.823Z,35.40
2019-05-20T15:35:04.941Z,33.80
2019-05-20T15:37:35.333Z,32.43
2019-05-20T15:40:06.106Z,33.27
2019-05-20T15:42:36.652Z,33.77
2019-05-20T15:45:09.446Z,28.17
2019-05-20T15:47:39.944Z,35.30
2019-05-20T15:50:12.154Z,32.97
2019-05-20T15:52:42.895Z,28.60
2019-05-20T15:55:13.717Z,32.10
2019-05-20T15:57:44.093Z,32.70
2019-05-20T16:00:16.561Z,31.93
2019-05-20T16:02:47.101Z,33.03
2019-05-20T16:05:17.699Z,27.57
2019-05-20T16:07:48.162Z,31.20
2019-05-20T16:10:18.570Z,32.40
2019-05-20T16:12:48.982Z,32.13
2019-05-20T16:15:19.402Z,30.83
2019-05-20T16:17:49.831Z,32.50
2019-05-20T16:20:21.374Z,29.77
2019-05-20T16:22:52.278Z,36.83
2019-05-20T16:25:22.820Z,33.27
2019-05-20T16:27:53.361Z,38.00
2019-05-20T16:30:25.944Z,30.50
2019-05-20T16:32:56.824Z,35.67
2019-05-20T16:35:27.237Z,33.67
2019-05-20T16:37:57.687Z,35.73
2019-05-20T16:40:30.158Z,41.57
2019-05-20T16:43:00.622Z,35.30
2019-05-20T16:45:32.502Z,38.27
2019-05-20T16:48:02.814Z,35.43
2019-05-20T16:50:35.428Z,38.33
2019-05-20T16:53:06.126Z,38.47
2019-05-20T16:55:36.899Z,42.43
2019-05-20T16:58:07.354Z,37.37
2019-05-20T17:00:38.953Z,37.30
2019-05-20T17:03:09.281Z,35.80
2019-05-20T17:05:40.070Z,34.70
2019-05-20T17:08:10.513Z,37.40
2019-05-20T17:10:42.545Z,37.37
2019-05-20T17:13:13.332Z,34.93
2019-05-20T17:15:43.752Z,35.93
2019-05-20T17:18:14.385Z,41.63
2019-05-20T17:20:46.298Z,45.37
2019-05-20T17:23:17.250Z,43.40
2019-05-20T17:25:50.647Z,44.33
2019-05-20T17:28:20.163Z,39.30
2019-05-20T17:30:50.580Z,46.87
2019-05-20T17:33:20.941Z,46.17
2019-05-20T17:35:53.249Z,48.47
2019-05-20T17:38:23.794Z,47.27
2019-05-20T17:40:54.299Z,49.23
2019-05-20T17:43:25.022Z,43.87
2019-05-20T17:45:55.908Z,44.77
2019-05-20T17:48:26.236Z,49.00
2019-05-20T17:50:58.873Z,47.07
2019-05-20T17:53:30.577Z,46.60
2019-05-20T17:56:01.404Z,44.40
2019-05-20T17:58:31.848Z,43.00
2019-05-20T18:01:15.004Z,49.77
2019-05-20T18:03:35.166Z,46.07
2019-05-20T18:06:06.035Z,43.50
2019-05-20T18:08:39.431Z,45.13
2019-05-20T18:11:09.833Z,45.93
2019-05-20T18:13:40.259Z,56.60
2019-05-20T18:16:10.971Z,47.20
2019-05-20T18:18:41.942Z,51.73
2019-05-20T18:21:12.300Z,60.77
2019-05-20T18:23:43.196Z,53.63
2019-05-20T18:26:13.941Z,49.27
2019-05-20T18:28:44.290Z,54.40
2019-05-20T18:31:29.696Z,63.97
2019-05-20T18:33:48.122Z,60.97
2019-05-20T18:36:18.903Z,51.80
2019-05-20T18:38:50.042Z,54.83
2019-05-20T18:41:20.453Z,56.67
2019-05-20T18:43:50.817Z,63.83
2019-05-20T18:46:21.573Z,58.83
2019-05-20T18:48:52.035Z,69.83
2019-05-20T18:51:22.794Z,59.67
2019-05-20T18:53:53.221Z,59.43
2019-05-20T18:56:23.649Z,62.70
2019-05-20T18:58:54.466Z,63.37
2019-05-20T19:01:24.881Z,59.07
2019-05-20T19:03:55.581Z,68.30
2019-05-20T19:06:26.391Z,67.27
2019-05-20T19:08:58.326Z,68.47
2019-05-20T19:11:28.912Z,71.57
2019-05-20T19:14:01.864Z,77.60
2019-05-20T19:16:33.763Z,77.30
2019-05-20T19:19:04.305Z,80.90
2019-05-20T19:21:34.805Z,80.23
2019-05-20T19:24:06.627Z,77.50
2019-05-20T19:26:37.019Z,80.47
2019-05-20T19:29:07.423Z,85.10
2019-05-20T19:31:37.745Z,82.80
2019-05-20T19:34:08.485Z,77.23
2019-05-20T19:36:40.706Z,79.27
2019-05-20T19:39:11.213Z,87.53
2019-05-20T19:41:42.942Z,70.00
2019-05-20T19:44:13.600Z,74.07
2019-05-20T19:46:44.145Z,75.30
2019-05-20T19:49:14.581Z,71.03
2019-05-20T19:51:47.246Z,71.27
2019-05-20T19:54:18.098Z,68.63
2019-05-20T19:56:50.020Z,66.80
2019-05-20T19:59:20.377Z,71.77
2019-05-20T20:01:50.839Z,62.43
2019-05-20T20:04:21.570Z,65.17
2019-05-20T20:06:52.286Z,71.13
2019-05-20T20:09:22.660Z,65.77
2019-05-20T20:11:53.382Z,63.67
2019-05-20T20:14:24.145Z,60.40
2019-05-20T20:16:54.751Z,64.43
2019-05-20T20:19:25.189Z,61.23
2019-05-20T20:21:55.549Z,65.03
2019-05-20T20:24:25.836Z,62.47
2019-05-20T20:26:56.510Z,59.23
2019-05-20T20:29:27.148Z,55.43
2019-05-20T20:31:59.048Z,62.47
2019-05-20T20:34:30.645Z,63.23
2019-05-20T20:37:02.124Z,61.60
2019-05-20T20:39:34.374Z,58.13
2019-05-20T20:42:05.516Z,66.43
2019-05-20T20:44:35.814Z,63.20
2019-05-20T20:47:07.458Z,74.47
2019-05-20T20:49:50.003Z,65.33
2019-05-20T20:52:20.305Z,61.53
2019-05-20T20:54:50.935Z,71.33
2019-05-20T20:57:22.657Z,71.40
2019-05-20T20:59:52.925Z,67.17
2019-05-20T21:02:23.225Z,64.17
2019-05-20T21:04:53.458Z,62.53
2019-05-20T21:07:23.711Z,67.70
2019-05-20T21:09:54.393Z,65.00
2019-05-20T21:12:25.086Z,67.67
2019-05-20T21:14:55.399Z,61.83
2019-05-20T21:17:25.751Z,68.23
2019-05-20T21:19:56.746Z,69.27
2019-05-20T21:22:27.077Z,62.07
2019-05-20T21:24:58.648Z,64.83
2019-05-20T21:27:28.969Z,68.97
2019-05-20T21:29:59.629Z,67.30
2019-05-20T21:32:29.986Z,64.97
2019-05-20T21:35:00.285Z,62.83
2019-05-20T21:37:31.188Z,68.07
2019-05-20T21:40:01.601Z,61.47
2019-05-20T21:42:32.352Z,63.67
2019-05-20T21:45:02.975Z,58.40
2019-05-20T21:47:33.763Z,64.47
2019-05-20T21:50:04.413Z,64.07
2019-05-20T21:52:34.724Z,53.77
2019-05-20T21:55:05.439Z,55.87
2019-05-20T21:57:36.119Z,56.87
2019-05-20T22:00:10.465Z,62.57
2019-05-20T22:02:42.703Z,52.77
2019-05-20T22:05:13.358Z,56.17
2019-05-20T22:07:44.020Z,49.27
2019-05-20T22:10:15.126Z,46.73
2019-05-20T22:12:45.744Z,49.13
2019-05-20T22:15:15.967Z,42.80
2019-05-20T22:17:46.799Z,51.33
2019-05-20T22:20:17.413Z,43.27
2019-05-20T22:22:53.018Z,48.53
2019-05-20T22:25:23.290Z,47.47
2019-05-20T22:27:53.582Z,51.10
2019-05-20T22:30:23.882Z,46.70
2019-05-20T22:32:54.157Z,40.50
2019-05-20T22:35:24.434Z,49.53
2019-05-20T22:37:54.760Z,57.33
2019-05-20T22:40:25.388Z,50.70
2019-05-20T22:42:56.069Z,60.03
2019-05-20T22:45:26.511Z,50.90
2019-05-20T22:47:57.227Z,50.63
2019-05-20T22:50:27.810Z,54.00
2019-05-20T22:52:59.396Z,49.30
2019-05-20T22:55:29.693Z,54.40
2019-05-20T22:58:01.860Z,57.63
2019-05-20T23:00:32.436Z,59.80
2019-05-20T23:03:03.031Z,59.40
2019-05-20T23:05:33.251Z,65.37
2019-05-20T23:08:03.622Z,56.67
2019-05-20T23:10:33.930Z,56.13
2019-05-20T23:13:04.207Z,54.67
2019-05-20T23:15:34.449Z,59.87
2019-05-20T23:18:05.089Z,65.40
2019-05-20T23:20:36.076Z,50.87
2019-05-20T23:23:06.446Z,61.63
2019-05-20T23:25:37.151Z,64.67
2019-05-20T23:28:10.436Z,59.77
2019-05-20T23:30:41.419Z,55.50
2019-05-20T23:33:12.110Z,64.27
2019-05-20T23:35:42.341Z,58.83
2019-05-20T23:38:12.595Z,59.93
2019-05-20T23:40:43.015Z,53.33
2019-05-20T23:43:13.535Z,55.30
2019-05-20T23:45:44.218Z,50.80
2019-05-20T23:48:14.548Z,53.63
2019-05-20T23:50:44.787Z,52.50
2019-05-20T23:53:15.331Z,51.87
2019-05-20T23:55:45.923Z,50.00
2019-05-20T23:58:16.277Z,48.93
